Time;durP1;ratioP1;P1;durP2;ratioP2;P2;SDS_P1;SDS_P2;PMS_P1;PMS_P2;Temp;Humidity;BMP_temperature;BMP_pressure;BME280_temperature;BME280_humidity;BME280_pressure;Samples;Min_cycle;Max_cycle;Signal;HPM_P1;HPM_P2
2021/03/28 00:01:30;;;;;;;3.38;2.17;;;;;;;20.99;46.85;100942.03;5095490;28;20054;-63
2021/03/28 00:03:56;;;;;;;2.50;1.67;;;;;;;21.01;46.25;100934.53;5095276;28;20487;-64
2021/03/28 00:06:49;;;;;;;2.93;1.90;;;;;;;21.05;45.72;100941.31;5094833;28;20034;-64
2021/03/28 00:09:27;;;;;;;2.28;1.65;;;;;;;21.04;46.85;100939.63;5095026;28;20367;-64
2021/03/28 00:11:52;;;;;;;1.90;1.63;;;;;;;21.07;45.99;100941.13;5095187;28;20023;-63
2021/03/28 00:14:24;;;;;;;2.17;1.87;;;;;;;21.16;46.06;100935.38;5076799;28;20035;-64
2021/03/28 00:16:50;;;;;;;2.55;2.00;;;;;;;21.20;45.87;100939.44;5095145;28;20260;-64
2021/03/28 00:19:30;;;;;;;3.47;2.13;;;;;;;21.11;46.57;100940.56;5094970;28;20036;-64
2021/03/28 00:22:01;;;;;;;3.33;1.98;;;;;;;21.02;47.57;100933.50;5094937;28;20024;-64
2021/03/28 00:24:30;;;;;;;2.53;1.70;;;;;;;20.97;47.44;100928.56;5094867;28;20461;-64
2021/03/28 00:27:17;;;;;;;2.53;1.75;;;;;;;20.83;47.87;100925.84;5094652;28;20135;-64
2021/03/28 00:30:15;;;;;;;3.47;2.05;;;;;;;20.76;48.60;100925.72;5094873;28;20059;-64
2021/03/28 00:32:47;;;;;;;4.03;2.03;;;;;;;20.75;48.88;100932.22;5094715;28;20020;-64
2021/03/28 00:35:28;;;;;;;2.05;1.80;;;;;;;20.72;49.14;100925.22;5094946;28;20028;-64
2021/03/28 00:38:09;;;;;;;1.90;1.50;;;;;;;20.73;49.30;100943.31;5094714;28;20024;-64
2021/03/28 00:40:36;;;;;;;2.70;1.77;;;;;;;20.70;49.80;100927.31;5094678;28;20032;-64
2021/03/28 00:43:13;;;;;;;1.92;1.45;;;;;;;20.70;49.71;100927.31;5094276;28;20020;-63
2021/03/28 00:45:41;;;;;;;2.13;1.45;;;;;;;20.72;49.21;100927.97;5094594;28;20027;-64
2021/03/28 00:48:17;;;;;;;2.00;1.70;;;;;;;20.72;49.51;100911.56;5094257;28;20028;-64
2021/03/28 00:50:47;;;;;;;2.50;1.60;;;;;;;20.71;49.32;100918.06;5094509;28;20031;-64
2021/03/28 00:53:28;;;;;;;2.50;1.40;;;;;;;20.71;49.65;100918.06;5093342;28;20093;-64
2021/03/28 00:55:58;;;;;;;1.50;1.40;;;;;;;20.71;49.27;100907.16;5094005;28;20047;-64
2021/03/28 00:58:28;;;;;;;2.35;1.60;;;;;;;20.68;49.86;100915.72;5094113;28;20467;-63
2021/03/28 01:01:21;;;;;;;2.40;1.35;;;;;;;20.70;49.38;100910.91;5094225;28;20031;-64
2021/03/28 01:04:11;;;;;;;2.35;1.67;;;;;;;20.70;49.21;100915.53;5094136;28;20020;-63
2021/03/28 01:06:47;;;;;;;2.17;1.40;;;;;;;20.70;49.16;100916.38;5094242;28;20070;-64
2021/03/28 01:09:20;;;;;;;1.63;1.30;;;;;;;20.70;48.95;100910.91;5093831;28;20055;-64
2021/03/28 01:12:04;;;;;;;2.30;1.50;;;;;;;20.68;48.31;100902.06;5093924;28;20045;-63
2021/03/28 01:14:41;;;;;;;2.88;1.30;;;;;;;20.71;49.09;100904.41;5093963;28;20477;-64
2021/03/28 01:17:25;;;;;;;1.77;1.30;;;;;;;20.71;48.02;100907.16;5093809;28;20138;-63
2021/03/28 01:20:15;;;;;;;1.90;1.40;;;;;;;20.72;47.88;100897.91;5093898;28;20130;-63
2021/03/28 01:23:03;;;;;;;1.50;1.20;;;;;;;20.76;48.33;100898.38;5093874;28;20443;-64
2021/03/28 01:25:40;;;;;;;1.67;1.35;;;;;;;20.81;48.25;100895.09;5093403;28;20066;-63
2021/03/28 01:28:21;;;;;;;1.10;1.00;;;;;;;20.80;48.35;100896.97;5093198;28;20024;-64
2021/03/28 01:30:58;;;;;;;2.67;1.48;;;;;;;20.82;48.13;100896.78;5093768;28;20039;-63
2021/03/28 01:33:32;;;;;;;1.60;1.25;;;;;;;20.87;48.24;100900.69;5093658;28;20103;-63
2021/03/28 01:36:04;;;;;;;2.50;1.08;;;;;;;20.91;47.66;100893.78;5093552;28;20181;-64
2021/03/28 01:38:37;;;;;;;1.25;1.10;;;;;;;20.98;46.84;100888.41;5093534;28;20020;-63
2021/03/28 01:41:16;;;;;;;3.45;1.33;;;;;;;20.96;46.75;100877.66;5093382;28;20032;-64
2021/03/28 01:44:05;;;;;;;1.63;1.23;;;;;;;20.91;46.59;100885.59;5093554;28;20081;-64
2021/03/28 01:46:58;;;;;;;3.22;1.20;;;;;;;20.79;46.61;100887.09;5093316;28;20062;-63
2021/03/28 01:49:38;;;;;;;2.90;1.27;;;;;;;20.73;46.52;100883.22;5093218;28;20056;-64
2021/03/28 01:52:22;;;;;;;2.88;1.30;;;;;;;20.65;46.29;100891.47;5072849;28;20020;-63
2021/03/28 01:55:06;;;;;;;2.22;1.33;;;;;;;20.62;46.52;100894.59;5078523;28;20042;-63
2021/03/28 01:58:07;;;;;;;2.03;1.00;;;;;;;20.55;47.12;100901.84;5092950;28;20512;-63
2021/03/28 02:00:38;;;;;;;1.20;1.00;;;;;;;20.51;46.97;100900.50;5010537;28;20077;-64
2021/03/28 02:03:20;;;;;;;1.95;1.35;;;;;;;20.46;47.31;100896.63;5009967;28;20502;-64
2021/03/28 02:06:15;;;;;;;2.50;1.25;;;;;;;20.50;46.85;100898.81;5010564;28;20046;-63
2021/03/28 02:09:01;;;;;;;2.53;0.80;;;;;;;20.46;46.40;100902.94;5002912;28;20121;-64
2021/03/28 02:11:42;;;;;;;1.10;0.85;;;;;;;20.44;46.05;100896.81;5010569;28;20560;-64
2021/03/28 02:14:41;;;;;;;1.45;0.90;;;;;;;20.43;46.53;100892.38;5010567;28;20080;-64
2021/03/28 02:17:26;;;;;;;0.88;0.85;;;;;;;20.46;46.47;100894.72;5010448;28;20026;-64
2021/03/28 02:20:26;;;;;;;2.20;1.35;;;;;;;20.48;46.74;100891.81;5010700;28;20433;-64
2021/03/28 02:22:58;;;;;;;3.00;1.30;;;;;;;20.43;47.51;100878.72;5010578;28;20049;-63
2021/03/28 02:25:41;;;;;;;2.15;0.73;;;;;;;20.46;47.79;100874.75;5010074;28;20077;-64
2021/03/28 02:28:33;;;;;;;2.03;1.05;;;;;;;20.47;48.69;100880.03;5010397;28;20034;-64
2021/03/28 02:31:19;;;;;;;1.65;0.80;;;;;;;20.47;48.93;100877.31;5010422;28;20572;-63
2021/03/28 02:33:59;;;;;;;1.13;0.55;;;;;;;20.48;49.69;100883.63;5010552;28;20034;-63
2021/03/28 02:36:36;;;;;;;0.73;0.55;;;;;;;20.47;50.12;100888.22;5010149;28;20026;-64
2021/03/28 02:39:21;;;;;;;0.93;0.70;;;;;;;20.48;50.40;100887.19;5092293;28;20028;-64
2021/03/28 02:42:02;;;;;;;0.80;0.65;;;;;;;20.49;50.00;100886.19;5092552;28;20024;-64
2021/03/28 02:44:51;;;;;;;0.75;0.73;;;;;;;20.49;50.24;100886.19;5092460;28;20524;-63
2021/03/28 02:47:50;;;;;;;1.00;0.50;;;;;;;20.52;50.19;100887.72;5092387;28;20112;-64
2021/03/28 02:50:37;;;;;;;1.05;0.32;;;;;;;20.55;50.03;100879.13;5092058;28;20023;-64
2021/03/28 02:53:24;;;;;;;0.40;0.30;;;;;;;20.56;49.94;100881.69;5092291;28;20074;-63
2021/03/28 02:56:04;;;;;;;2.28;0.55;;;;;;;20.57;49.91;100882.53;5092050;28;20471;-63
2021/03/28 02:58:52;;;;;;;0.52;0.35;;;;;;;20.62;49.52;100875.47;5072216;28;20032;-63
2021/03/28 03:01:56;;;;;;;1.33;0.47;;;;;;;20.62;50.16;100871.88;5091558;28;20035;-64
2021/03/28 03:04:38;;;;;;;1.73;0.70;;;;;;;20.63;49.54;100876.31;5009739;28;20469;-64
2021/03/28 03:07:24;;;;;;;2.58;0.77;;;;;;;20.68;50.19;100880.22;5009894;28;20120;-64
2021/03/28 03:10:04;;;;;;;1.88;0.50;;;;;;;20.75;50.01;100884.91;5010053;28;20057;-63
2021/03/28 03:12:51;;;;;;;1.60;0.40;;;;;;;20.83;49.02;100884.84;5010012;28;20029;-64
2021/03/28 03:15:31;;;;;;;0.70;0.38;;;;;;;20.89;47.57;100887.66;5009972;28;20038;-63
2021/03/28 03:18:21;;;;;;;0.50;0.40;;;;;;;20.95;47.18;100886.06;5012334;28;20033;-64
2021/03/28 03:21:05;;;;;;;0.70;0.60;;;;;;;20.96;46.99;100885.03;4997387;28;20137;-63
2021/03/28 03:23:49;;;;;;;2.45;0.47;;;;;;;20.95;46.60;100886.06;5013860;28;20030;-63
2021/03/28 03:26:41;;;;;;;3.05;0.90;;;;;;;20.73;47.51;100894.16;5012368;28;20136;-64
2021/03/28 03:29:33;;;;;;;1.20;0.80;;;;;;;20.57;47.56;100894.31;5013397;28;20652;-63
2021/03/28 03:32:19;;;;;;;1.05;0.50;;;;;;;20.37;47.38;100893.09;5013535;28;20037;-64
2021/03/28 03:34:50;;;;;;;1.25;0.60;;;;;;;20.39;47.26;100896.47;5013671;28;20042;-63
2021/03/28 03:38:03;;;;;;;1.15;0.77;;;;;;;20.38;47.73;100900.25;4996814;28;20413;-63
2021/03/28 03:40:51;;;;;;;1.60;0.80;;;;;;;20.30;47.42;100887.50;4999667;28;20048;-63
2021/03/28 03:43:45;;;;;;;2.45;0.68;;;;;;;20.30;47.87;100886.66;5072678;28;20081;-65
2021/03/28 03:46:29;;;;;;;1.50;0.70;;;;;;;20.40;47.77;100881.78;5072767;28;20024;-64
2021/03/28 03:49:12;;;;;;;1.88;0.68;;;;;;;20.35;47.03;100895.16;5072897;28;20040;-64
2021/03/28 03:51:47;;;;;;;0.55;0.30;;;;;;;20.29;47.85;100887.69;5055221;28;20051;-64
2021/03/28 03:54:28;;;;;;;;;;;;;;;20.30;47.62;100889.38;5057323;28;20051;-63
2021/03/28 03:57:23;;;;;;;0.85;0.50;;;;;;;20.28;47.25;100885.97;5072731;28;19991;-65
2021/03/28 04:00:00;;;;;;;;;;;;;;;20.24;48.51;100881.94;5056300;28;20512;-63
2021/03/28 04:02:46;;;;;;;1.98;0.73;;;;;;;20.29;47.60;100879.50;5072549;28;19954;-64
2021/03/28 04:05:18;;;;;;;1.38;0.50;;;;;;;20.31;48.21;100875.53;5072122;28;20541;-65
2021/03/28 04:07:54;;;;;;;2.25;0.80;;;;;;;20.36;47.42;100880.47;5072650;28;20035;-63
2021/03/28 04:10:46;;;;;;;0.70;0.45;;;;;;;20.43;47.60;100897.84;5055568;28;20040;-64
2021/03/28 04:13:17;;;;;;;1.63;0.82;;;;;;;20.51;47.42;100888.75;5072452;28;20032;-63
2021/03/28 04:16:04;;;;;;;1.25;0.30;;;;;;;20.59;46.77;100889.50;5072867;28;20036;-63
2021/03/28 04:19:06;;;;;;;0.38;0.30;;;;;;;20.63;47.44;100892.69;5095013;28;20020;-64
2021/03/28 04:21:40;;;;;;;1.10;0.50;;;;;;;20.63;46.89;100885.34;5095099;28;20049;-63
2021/03/28 04:24:14;;;;;;;1.20;0.40;;;;;;;20.65;47.38;100888.75;5094488;28;20032;-63
2021/03/28 04:27:07;;;;;;;0.57;0.30;;;;;;;20.66;47.93;100893.22;5076903;28;20463;-64
2021/03/28 04:29:33;;;;;;;0.90;0.30;;;;;;;20.71;48.17;100895.38;5094724;28;20039;-63
2021/03/28 04:32:14;;;;;;;0.60;0.30;;;;;;;20.73;48.47;100891.41;5076391;28;20023;-64
2021/03/28 04:34:48;;;;;;;0.55;0.28;;;;;;;20.78;48.39;100884.53;5094784;28;20035;-64
2021/03/28 04:37:47;;;;;;;0.40;0.20;;;;;;;20.80;49.10;100877.84;5094432;28;20116;-64
2021/03/28 04:40:36;;;;;;;0.85;0.35;;;;;;;20.82;49.71;100875.78;5076105;28;20027;-64
2021/03/28 04:43:13;;;;;;;0.60;0.30;;;;;;;20.84;49.67;100878.34;5076226;28;20378;-64
2021/03/28 04:45:59;;;;;;;0.98;0.20;;;;;;;20.88;49.89;100885.97;5094489;28;20024;-63
2021/03/28 04:48:31;;;;;;;0.35;0.20;;;;;;;20.91;49.79;100884.75;5094080;28;20149;-63
2021/03/28 04:51:05;;;;;;;0.50;0.30;;;;;;;20.94;49.64;100895.31;5094264;28;20020;-64
2021/03/28 04:53:56;;;;;;;1.08;0.20;;;;;;;20.93;49.75;100888.13;5075923;28;20024;-64
2021/03/28 04:56:47;;;;;;;0.73;0.20;;;;;;;20.98;49.78;100882.94;5093655;28;20028;-63
2021/03/28 04:59:51;;;;;;;0.80;0.20;;;;;;;21.00;49.30;100889.09;5073901;28;20116;-64
2021/03/28 05:02:45;;;;;;;0.22;0.20;;;;;;;21.12;48.85;100884.84;5031198;28;20079;-64
2021/03/28 05:05:28;;;;;;;0.10;0.10;;;;;;;21.12;48.82;100892.19;5031474;28;20376;-64
2021/03/28 05:08:06;;;;;;;0.40;0.13;;;;;;;21.10;48.84;100897.84;5031465;28;20037;-64
2021/03/28 05:10:58;;;;;;;0.17;0.00;;;;;;;21.16;49.53;100897.09;5031484;28;20253;-65
2021/03/28 05:13:58;;;;;;;0.40;0.20;;;;;;;21.16;49.13;100897.09;4972758;28;20422;-64
2021/03/28 05:16:57;;;;;;;0.17;0.10;;;;;;;21.08;48.69;100896.34;4972476;28;20391;-64
2021/03/28 05:19:47;;;;;;;0.35;0.10;;;;;;;20.94;48.55;100893.41;4972561;28;20038;-64
2021/03/28 05:22:49;;;;;;;0.40;0.10;;;;;;;20.90;48.11;100888.53;4972220;28;20062;-63
2021/03/28 05:25:29;;;;;;;0.47;0.10;;;;;;;20.87;48.02;100888.91;4957472;28;20455;-64
2021/03/28 05:28:09;;;;;;;0.52;0.10;;;;;;;20.90;47.43;100883.06;4953090;29;20031;-64
2021/03/28 05:30:53;;;;;;;0.68;0.40;;;;;;;20.92;47.55;100870.03;4953046;29;20243;-63
2021/03/28 05:33:30;;;;;;;0.17;0.10;;;;;;;20.93;47.35;100877.22;4952875;29;20047;-63
2021/03/28 05:36:11;;;;;;;0.10;0.10;;;;;;;20.92;47.34;100875.50;4952949;29;20482;-64
2021/03/28 05:38:54;;;;;;;0.55;0.30;;;;;;;20.92;46.86;100870.03;4953326;28;20034;-64
2021/03/28 05:41:51;;;;;;;0.32;0.15;;;;;;;20.95;46.86;100875.13;5010590;28;20037;-63
2021/03/28 05:44:38;;;;;;;1.00;0.20;;;;;;;20.94;47.05;100867.97;5010820;28;20420;-63
2021/03/28 05:47:34;;;;;;;1.50;0.28;;;;;;;20.93;47.23;100869.00;5010807;28;20030;-64
2021/03/28 05:50:19;;;;;;;0.10;0.00;;;;;;;20.99;46.87;100876.44;5036714;28;20031;-63
2021/03/28 05:53:05;;;;;;;0.10;0.10;;;;;;;20.99;47.16;100880.03;5010987;28;20045;-63
2021/03/28 05:56:08;;;;;;;0.22;0.10;;;;;;;20.98;47.52;100880.22;4991569;28;20137;-63
2021/03/28 05:58:52;;;;;;;0.25;0.10;;;;;;;20.93;48.75;100877.22;4991188;28;20781;-63
2021/03/28 06:01:33;;;;;;;0.50;0.08;;;;;;;20.96;48.38;100865.91;4991087;28;20514;-63
2021/03/28 06:03:58;;;;;;;0.47;0.20;;;;;;;20.98;48.72;100866.56;5009502;28;20538;-63
2021/03/28 06:06:35;;;;;;;0.63;0.20;;;;;;;20.99;48.52;100860.91;5030387;28;20064;-63
2021/03/28 06:09:40;;;;;;;0.65;0.00;;;;;;;20.99;47.81;100868.25;5030243;28;20302;-63
2021/03/28 06:12:26;;;;;;;0.32;0.10;;;;;;;20.98;47.87;100858.34;5030098;28;20029;-63
2021/03/28 06:15:14;;;;;;;0.30;0.10;;;;;;;20.97;48.17;100862.97;5030508;28;20465;-63
2021/03/28 06:18:17;;;;;;;2.22;0.17;;;;;;;20.99;48.08;100860.91;5030360;28;20043;-63
2021/03/28 06:21:26;;;;;;;0.17;0.00;;;;;;;20.97;47.25;100848.47;5030438;28;20033;-63
2021/03/28 06:24:28;;;;;;;1.27;0.10;;;;;;;20.96;47.40;100844.03;5018842;28;20070;-63
2021/03/28 06:27:25;;;;;;;0.30;0.05;;;;;;;20.96;47.38;100854.97;4974587;28;20061;-63
2021/03/28 06:29:57;;;;;;;0.00;0.00;;;;;;;20.99;46.65;100849.13;4979929;28;20042;-63
2021/03/28 06:32:37;;;;;;;0.30;0.20;;;;;;;20.99;47.41;100843.66;5010144;28;20041;-64
2021/03/28 06:35:17;;;;;;;0.88;0.17;;;;;;;21.03;47.21;100847.72;5010156;28;20536;-63
2021/03/28 06:37:58;;;;;;;0.35;0.05;;;;;;;21.06;47.64;100838.28;5010487;28;20033;-63
2021/03/28 06:40:45;;;;;;;0.20;0.00;;;;;;;21.08;46.68;100842.53;5010086;28;20133;-63
2021/03/28 06:43:52;;;;;;;0.15;0.08;;;;;;;21.07;46.55;100818.97;5027652;28;20499;-63
2021/03/28 06:46:38;;;;;;;0.20;0.10;;;;;;;21.07;46.64;100824.44;5029591;28;20025;-64
2021/03/28 06:49:54;;;;;;;0.68;0.20;;;;;;;21.11;45.68;100831.22;5029716;28;20036;-63
2021/03/28 06:52:38;;;;;;;0.10;0.00;;;;;;;21.14;46.26;100836.28;4972291;28;20617;-63
2021/03/28 06:55:35;;;;;;;0.10;0.08;;;;;;;21.22;45.22;100832.63;4992143;28;20046;-63
2021/03/28 06:58:25;;;;;;;0.20;0.00;;;;;;;21.27;46.21;100841.97;4977053;28;20069;-63
2021/03/28 07:01:21;;;;;;;0.22;0.00;;;;;;;21.26;46.43;100831.22;4986365;28;20039;-64
2021/03/28 07:04:22;;;;;;;0.65;0.20;;;;;;;21.25;47.32;100837.75;4994369;28;20037;-63
2021/03/28 07:07:25;;;;;;;0.20;0.03;;;;;;;21.31;47.48;100836.97;5014543;28;20116;-63
2021/03/28 07:10:07;;;;;;;0.38;0.10;;;;;;;21.22;48.47;100833.47;5033823;28;20060;-64
2021/03/28 07:12:58;;;;;;;0.10;0.00;;;;;;;21.17;48.09;100825.00;5016814;28;20029;-63
2021/03/28 07:15:34;;;;;;;0.45;0.10;;;;;;;21.10;47.87;100826.78;5033571;28;20135;-63
2021/03/28 07:18:35;;;;;;;1.17;0.00;;;;;;;21.08;48.61;100820.66;5033669;28;20041;-64
2021/03/28 07:21:39;;;;;;;0.32;0.10;;;;;;;21.09;48.57;100825.09;5016901;28;20037;-63
2021/03/28 07:24:23;;;;;;;0.22;0.10;;;;;;;21.07;48.97;100829.91;5013328;28;20030;-63
2021/03/28 07:27:20;;;;;;;1.25;0.13;;;;;;;21.06;49.34;100821.91;5014225;28;20042;-63
2021/03/28 07:30:07;;;;;;;0.20;0.10;;;;;;;21.07;48.96;100829.91;4997081;28;20038;-63
2021/03/28 07:33:03;;;;;;;0.20;0.10;;;;;;;21.05;48.84;100831.97;5013566;28;20068;-63
2021/03/28 07:35:46;;;;;;;0.10;0.03;;;;;;;21.10;49.07;100828.66;4999556;28;20123;-63
2021/03/28 07:38:40;;;;;;;0.45;0.10;;;;;;;21.09;48.57;100827.81;5033021;28;20040;-63
2021/03/28 07:41:11;;;;;;;0.00;0.00;;;;;;;21.07;48.47;100829.91;5033059;28;20125;-63
2021/03/28 07:44:10;;;;;;;0.20;0.10;;;;;;;21.11;48.25;100824.91;5032396;28;20109;-63
2021/03/28 07:46:55;;;;;;;0.75;0.10;;;;;;;21.05;49.17;100831.97;5033087;28;20128;-63
2021/03/28 07:49:32;;;;;;;0.20;0.10;;;;;;;21.04;49.09;100824.81;5032907;28;20075;-63
2021/03/28 07:52:23;;;;;;;0.35;0.20;;;;;;;21.03;48.81;100834.06;5013282;28;20034;-63
2021/03/28 07:55:21;;;;;;;0.20;0.15;;;;;;;21.07;50.08;100831.78;5053132;22;20412;-62
2021/03/28 07:58:37;;;;;;;0.10;0.10;;;;;;;21.12;49.51;100830.16;5032678;28;20432;-63
2021/03/28 08:01:17;;;;;;;2.00;0.25;;;;;;;21.15;49.00;100832.53;5008496;28;20070;-63
2021/03/28 08:03:45;;;;;;;0.00;0.00;;;;;;;21.15;49.20;100827.06;5003283;28;20042;-63
2021/03/28 08:06:13;;;;;;;0.03;0.00;;;;;;;21.11;49.35;100820.28;5012806;28;20030;-63
2021/03/28 08:08:47;;;;;;;0.47;0.10;;;;;;;21.11;48.66;100814.81;5013029;28;20068;-63
2021/03/28 08:11:28;;;;;;;0.50;0.20;;;;;;;21.13;48.93;100825.56;4996435;28;20168;-63
2021/03/28 08:14:10;;;;;;;0.32;0.00;;;;;;;21.10;48.74;100824.06;4996404;28;20034;-62
2021/03/28 08:16:40;;;;;;;0.80;0.20;;;;;;;21.09;48.72;100827.81;5012900;28;20543;-63
2021/03/28 08:19:43;;;;;;;0.70;0.10;;;;;;;21.11;48.58;100820.28;5012686;28;20045;-63
2021/03/28 08:22:29;;;;;;;0.20;0.10;;;;;;;21.10;48.37;100824.06;5012680;28;20026;-63
2021/03/28 08:25:19;;;;;;;0.17;0.10;;;;;;;21.12;47.48;100832.91;5012681;28;20042;-63
2021/03/28 08:27:47;;;;;;;0.32;0.03;;;;;;;21.13;47.42;100840.06;5012804;28;20490;-62
2021/03/28 08:30:36;;;;;;;0.63;0.20;;;;;;;21.14;47.05;100829.97;4995735;28;20061;-63
2021/03/28 08:33:10;;;;;;;0.57;0.10;;;;;;;21.13;47.12;100829.13;5012491;28;20037;-63
2021/03/28 08:35:45;;;;;;;;;;;;;;;21.15;46.31;100828.94;5014309;28;20068;-62
2021/03/28 08:38:22;;;;;;;0.10;0.10;;;;;;;21.18;46.75;100831.31;5034524;28;20003;-63
2021/03/28 08:41:19;;;;;;;0.43;0.10;;;;;;;21.22;46.82;100829.91;5034708;28;20032;-63
2021/03/28 08:44:15;;;;;;;0.10;0.00;;;;;;;21.25;46.90;100833.13;5034844;28;20029;-62
2021/03/28 08:47:15;;;;;;;0.85;0.00;;;;;;;21.32;46.89;100834.03;5034625;28;20496;-63
2021/03/28 08:49:49;;;;;;;0.55;0.10;;;;;;;21.35;46.00;100838.31;5037379;28;20390;-63
2021/03/28 08:52:30;;;;;;;0.32;0.05;;;;;;;21.34;47.19;100830.28;5074013;28;20032;-63
2021/03/28 08:55:20;;;;;;;0.17;0.10;;;;;;;21.38;47.63;100826.13;5087769;28;20425;-63
2021/03/28 08:57:59;;;;;;;0.50;0.10;;;;;;;21.28;47.82;100832.72;5094438;28;20040;-62
2021/03/28 09:00:34;;;;;;;0.20;0.10;;;;;;;21.31;47.37;100829.59;5094137;28;20024;-63
2021/03/28 09:03:11;;;;;;;0.17;0.00;;;;;;;21.18;47.01;100832.16;5073072;28;20398;-63
2021/03/28 09:06:01;;;;;;;0.50;0.00;;;;;;;21.14;47.69;100829.97;5073759;28;20032;-63
2021/03/28 09:08:35;;;;;;;0.00;0.00;;;;;;;21.06;48.34;100833.69;5073765;28;20032;-63
2021/03/28 09:11:43;;;;;;;0.10;0.10;;;;;;;21.12;47.32;100838.38;5073809;28;20063;-63
2021/03/28 09:14:59;;;;;;;0.35;0.10;;;;;;;21.09;47.34;100841.50;5073205;28;20480;-64
2021/03/28 09:17:33;;;;;;;0.30;0.10;;;;;;;21.07;47.05;100840.84;5073992;28;20028;-63
2021/03/28 09:20:07;;;;;;;0.73;0.10;;;;;;;21.11;46.64;100841.28;5073645;28;20062;-63
2021/03/28 09:22:49;;;;;;;0.20;0.10;;;;;;;21.09;46.79;100846.97;5073472;28;20032;-63
2021/03/28 09:25:38;;;;;;;0.28;0.15;;;;;;;21.14;46.17;100840.91;5073535;28;20028;-63
2021/03/28 09:28:12;;;;;;;0.52;0.10;;;;;;;21.15;46.11;100842.59;5073312;28;20020;-63
2021/03/28 09:30:59;;;;;;;0.45;0.10;;;;;;;21.05;47.25;100853.00;5073860;28;20111;-63
2021/03/28 09:33:27;;;;;;;0.75;0.10;;;;;;;21.07;47.04;100848.19;5073422;28;20606;-63
2021/03/28 09:36:13;;;;;;;0.10;0.08;;;;;;;21.05;47.16;100842.91;5073402;28;20086;-63
2021/03/28 09:38:44;;;;;;;0.32;0.10;;;;;;;21.05;47.86;100853.84;5073458;28;20024;-62
2021/03/28 09:41:10;;;;;;;0.38;0.10;;;;;;;21.05;47.66;100845.66;5073164;28;20020;-63
2021/03/28 09:44:13;;;;;;;0.87;0.27;;;;;;;21.14;47.25;100857.31;5073285;28;20375;-64
2021/03/28 09:47:15;;;;;;;0.10;0.10;;;;;;;21.16;46.87;100856.09;5073259;28;20264;-63
2021/03/28 09:49:58;;;;;;;0.20;0.00;;;;;;;21.12;48.10;100853.94;5074684;28;20029;-63
2021/03/28 09:52:47;;;;;;;0.77;0.10;;;;;;;21.09;48.21;100851.56;5093032;28;20031;-63
2021/03/28 09:55:44;;;;;;;0.55;0.05;;;;;;;21.10;47.85;100862.31;5052827;28;20442;-63
2021/03/28 09:58:43;;;;;;;0.30;0.10;;;;;;;21.11;48.31;100854.97;4991175;28;20449;-62
2021/03/28 10:01:17;;;;;;;1.15;0.00;;;;;;;21.12;49.27;100868.44;4994126;28;20259;-63
2021/03/28 10:03:54;;;;;;;0.25;0.08;;;;;;;21.15;49.40;100868.06;4994634;28;20025;-63
2021/03/28 10:06:22;;;;;;;0.10;0.10;;;;;;;21.14;49.91;100880.03;5010696;28;20038;-63
2021/03/28 10:08:51;;;;;;;0.10;0.10;;;;;;;21.21;49.28;100869.22;5010765;28;20038;-63
2021/03/28 10:11:34;;;;;;;0.20;0.10;;;;;;;21.18;49.87;100881.38;5010684;28;20036;-63
2021/03/28 10:14:27;;;;;;;0.10;0.10;;;;;;;21.22;49.31;100871.75;5010641;28;20042;-63
2021/03/28 10:17:09;;;;;;;0.20;0.00;;;;;;;21.23;49.53;100884.38;5010804;28;20037;-63
2021/03/28 10:19:41;;;;;;;0.40;0.10;;;;;;;21.24;49.76;100880.63;5010776;28;20025;-63
2021/03/28 10:22:36;;;;;;;0.43;0.00;;;;;;;21.24;49.60;100885.22;5010413;28;20508;-63
2021/03/28 10:25:24;;;;;;;0.55;0.08;;;;;;;21.23;49.38;100875.34;5010144;28;20496;-63
2021/03/28 10:28:26;;;;;;;0.55;0.10;;;;;;;21.29;48.96;100886.38;5010402;28;20046;-63
2021/03/28 10:31:18;;;;;;;0.15;0.10;;;;;;;21.29;48.74;100886.38;5010610;28;20057;-63
2021/03/28 10:34:32;;;;;;;1.45;0.10;;;;;;;21.36;47.69;100905.63;5030834;28;20029;-62
2021/03/28 10:37:16;;;;;;;0.40;0.10;;;;;;;21.40;48.31;100908.81;4993631;28;20049;-64
2021/03/28 10:39:53;;;;;;;0.10;0.10;;;;;;;21.36;49.06;100910.25;5010459;28;20425;-63
2021/03/28 10:42:39;;;;;;;0.85;0.00;;;;;;;21.40;48.80;100917.03;5010143;28;20042;-64
2021/03/28 10:45:21;;;;;;;0.20;0.00;;;;;;;21.31;49.64;100908.91;5010030;28;20115;-63
2021/03/28 10:47:57;;;;;;;1.02;0.10;;;;;;;21.27;49.01;100918.53;5010331;28;20034;-63
2021/03/28 10:50:58;;;;;;;1.48;0.00;;;;;;;21.23;48.41;100924.53;5017286;28;20033;-63
2021/03/28 10:54:05;;;;;;;0.40;0.10;;;;;;;21.08;48.91;100921.81;5021613;28;20393;-63
2021/03/28 10:56:49;;;;;;;0.10;0.10;;;;;;;21.08;47.50;100929.16;5010203;28;20080;-63
2021/03/28 10:59:45;;;;;;;0.75;0.40;;;;;;;21.11;47.46;100928.78;5010096;28;20545;-63
2021/03/28 11:02:41;;;;;;;0.22;0.10;;;;;;;21.16;46.74;100938.09;5009952;28;20040;-63
2021/03/28 11:05:19;;;;;;;0.70;0.10;;;;;;;21.18;46.48;100938.78;5009958;28;20102;-63
2021/03/28 11:08:05;;;;;;;0.43;0.10;;;;;;;21.23;46.83;100935.47;4993716;28;20070;-63
2021/03/28 11:11:13;;;;;;;0.10;0.10;;;;;;;21.22;46.55;100944.72;5010127;28;20041;-63
2021/03/28 11:14:00;;;;;;;0.38;0.20;;;;;;;21.13;47.59;100940.38;4964233;28;20058;-63
2021/03/28 11:16:42;;;;;;;0.30;0.00;;;;;;;21.10;47.75;100944.31;4990155;28;20134;-63
2021/03/28 11:19:44;;;;;;;0.35;0.00;;;;;;;21.10;47.90;100943.47;4990285;28;20125;-64
2021/03/28 11:22:15;;;;;;;0.43;0.00;;;;;;;21.12;47.71;100941.41;4990195;28;20034;-63
2021/03/28 11:25:15;;;;;;;0.80;0.10;;;;;;;21.12;47.67;100944.97;4989875;28;20465;-63
2021/03/28 11:28:08;;;;;;;0.38;0.10;;;;;;;21.16;47.63;100940.84;4990508;28;20030;-64
2021/03/28 11:30:41;;;;;;;0.52;0.30;;;;;;;21.18;48.00;100951.59;4973989;28;20509;-63
2021/03/28 11:33:32;;;;;;;0.15;0.10;;;;;;;21.12;48.84;100934.06;4990204;28;20023;-63
2021/03/28 11:36:02;;;;;;;0.10;0.08;;;;;;;21.21;48.58;100945.75;4989969;28;20481;-64
2021/03/28 11:38:34;;;;;;;0.10;0.10;;;;;;;21.21;48.98;100943.88;4975393;28;20113;-63
2021/03/28 11:41:11;;;;;;;0.40;0.30;;;;;;;21.21;49.05;100957.53;4993660;28;20037;-63
2021/03/28 11:43:39;;;;;;;0.32;0.10;;;;;;;21.17;49.53;100955.38;4993614;28;20493;-63
2021/03/28 11:46:04;;;;;;;1.45;0.00;;;;;;;21.20;48.60;100957.75;4993549;28;20038;-63
2021/03/28 11:48:41;;;;;;;0.20;0.08;;;;;;;21.16;48.80;100959.97;4993699;28;20045;-62
2021/03/28 11:51:21;;;;;;;0.03;0.03;;;;;;;21.16;48.23;100959.97;5070558;28;20036;-63
2021/03/28 11:53:53;;;;;;;0.40;0.10;;;;;;;21.16;48.39;100967.31;5084347;28;20459;-64
2021/03/28 11:56:44;;;;;;;0.77;0.20;;;;;;;21.19;49.23;100966.97;5075060;28;20032;-63
2021/03/28 11:59:34;;;;;;;0.10;0.00;;;;;;;21.23;49.54;100971.88;5075110;28;20096;-63
2021/03/28 12:02:12;;;;;;;0.30;0.13;;;;;;;21.27;50.00;100973.22;5012850;28;20042;-63
2021/03/28 12:04:47;;;;;;;0.20;0.05;;;;;;;21.27;49.95;100977.84;5013221;28;20048;-63
2021/03/28 12:07:36;;;;;;;0.10;0.00;;;;;;;21.32;49.03;100992.63;5012893;28;20045;-63
2021/03/28 12:10:02;;;;;;;0.10;0.10;;;;;;;21.33;49.64;100996.22;5012913;28;20096;-63
2021/03/28 12:12:33;;;;;;;0.10;0.10;;;;;;;21.36;49.64;100997.75;4996168;28;20117;-63
2021/03/28 12:15:42;;;;;;;1.10;0.10;;;;;;;21.38;49.15;100995.69;4993118;28;20243;-63
2021/03/28 12:21:03;;;;;;;0.20;0.10;;;;;;;21.42;49.97;101013.41;4916409;29;20036;-63
2021/03/28 12:23:35;;;;;;;0.38;0.10;;;;;;;21.49;49.22;101014.34;4923382;29;20035;-63
2021/03/28 12:26:26;;;;;;;0.50;0.28;;;;;;;21.35;50.61;101028.88;4934488;29;20386;-63
2021/03/28 12:29:01;;;;;;;0.10;0.00;;;;;;;21.26;49.63;101037.16;4935024;29;20092;-63
2021/03/28 12:31:50;;;;;;;0.52;0.10;;;;;;;21.21;49.58;101039.56;4935217;29;20035;-63
2021/03/28 12:34:30;;;;;;;0.47;0.00;;;;;;;21.10;49.88;101034.53;4927742;29;20139;-63
2021/03/28 12:37:08;;;;;;;0.13;0.00;;;;;;;21.13;49.96;101041.50;4904804;29;20123;-63
2021/03/28 12:39:41;;;;;;;0.00;0.00;;;;;;;21.19;48.74;101052.59;4960213;28;20035;-63
2021/03/28 12:42:25;;;;;;;0.40;0.17;;;;;;;21.25;49.08;101051.00;4975831;28;20045;-63
2021/03/28 12:45:08;;;;;;;0.88;0.10;;;;;;;21.27;48.58;101060.72;4992934;28;20162;-64
2021/03/28 12:47:48;;;;;;;0.15;0.10;;;;;;;21.27;48.60;101065.34;4992704;28;20030;-63
2021/03/28 12:50:14;;;;;;;1.17;0.08;;;;;;;21.27;48.39;101070.81;5061947;28;20043;-63